Time;durP1;ratioP1;P1;durP2;ratioP2;P2;SDS_P1;SDS_P2;PMS_P1;PMS_P2;Temp;Humidity;BMP_temperature;BMP_pressure;BME280_temperature;BME280_humidity;BME280_pressure;Samples;Min_cycle;Max_cycle;Signal;HPM_P1;HPM_P2
2021/05/25 00:00:24;;;;;;;14.15;2.28;;;;;;;6.67;80.54;98820.72;4934012;29;20508;-71
2021/05/25 00:02:50;;;;;;;7.28;2.03;;;;;;;6.78;79.54;98816.41;4933460;29;20413;-71
2021/05/25 00:05:21;;;;;;;10.57;2.15;;;;;;;6.78;79.84;98817.19;4924771;29;20036;-71
2021/05/25 00:07:47;;;;;;;5.75;1.95;;;;;;;6.86;79.97;98819.47;4926037;29;20035;-71
2021/05/25 00:10:13;;;;;;;7.40;1.92;;;;;;;6.94;79.31;98825.50;4933182;29;20437;-71
2021/05/25 00:12:39;;;;;;;6.78;1.90;;;;;;;6.94;79.65;98834.34;4949170;28;20167;-71
2021/05/25 00:15:11;;;;;;;7.00;2.03;;;;;;;6.92;79.94;98844.47;4929276;29;20115;-71
2021/05/25 00:17:37;;;;;;;7.30;2.33;;;;;;;7.03;78.97;98834.75;4935680;29;20032;-71
2021/05/25 00:20:09;;;;;;;6.97;1.98;;;;;;;7.01;79.05;98831.50;4935722;29;20035;-71
2021/05/25 00:22:36;;;;;;;6.70;1.83;;;;;;;6.99;79.34;98836.28;4929530;29;20040;-71
2021/05/25 00:25:02;;;;;;;9.55;2.53;;;;;;;6.98;79.63;98823.94;4925415;29;20044;-71
2021/05/25 00:27:28;;;;;;;6.32;1.83;;;;;;;6.89;80.21;98821.66;4926624;29;20675;-71
2021/05/25 00:29:54;;;;;;;5.60;2.03;;;;;;;6.84;80.35;98826.94;4928523;29;20040;-71
2021/05/25 00:32:19;;;;;;;10.05;2.33;;;;;;;6.86;80.54;98835.53;4939445;29;20039;-71
2021/05/25 00:34:45;;;;;;;7.82;2.50;;;;;;;6.82;80.74;98828.25;4936855;29;20118;-72
2021/05/25 00:37:10;;;;;;;8.70;1.80;;;;;;;6.78;81.20;98830.56;4929828;29;20023;-71
2021/05/25 00:39:36;;;;;;;9.95;2.10;;;;;;;6.78;81.47;98832.44;4928189;29;20111;-71
2021/05/25 00:42:03;;;;;;;10.68;2.40;;;;;;;6.80;81.22;98835.69;4934693;29;20489;-71
2021/05/25 00:44:29;;;;;;;7.38;2.30;;;;;;;6.76;82.07;98832.69;4935973;29;20046;-71
2021/05/25 00:46:55;;;;;;;9.18;2.33;;;;;;;6.72;82.13;98827.00;4931874;29;20035;-72
2021/05/25 00:49:20;;;;;;;12.80;2.40;;;;;;;6.72;81.98;98827.00;4932346;29;20063;-72
2021/05/25 00:51:46;;;;;;;8.02;2.50;;;;;;;6.72;81.56;98827.00;4926246;29;20036;-71
2021/05/25 00:54:11;;;;;;;15.65;2.78;;;;;;;6.70;82.33;98837.13;4916980;29;20173;-72
2021/05/25 00:56:38;;;;;;;8.38;2.53;;;;;;;6.74;82.06;98827.56;4926415;29;20063;-72
2021/05/25 00:59:03;;;;;;;9.65;2.90;;;;;;;6.72;81.71;98837.72;4940756;29;20477;-71
2021/05/25 01:01:29;;;;;;;21.40;3.33;;;;;;;6.71;82.61;98832.59;4921822;29;20043;-72
2021/05/25 01:03:56;;;;;;;9.85;3.35;;;;;;;6.76;82.72;98843.38;4922134;29;20036;-72
2021/05/25 01:06:22;;;;;;;8.70;2.83;;;;;;;6.74;83.19;98834.78;4921463;29;20110;-71
2021/05/25 01:08:47;;;;;;;9.25;3.00;;;;;;;6.71;82.70;98841.44;4940908;29;20049;-71
2021/05/25 01:11:15;;;;;;;10.80;3.45;;;;;;;6.72;83.43;98840.38;4918337;29;20500;-71
2021/05/25 01:13:47;;;;;;;7.20;3.00;;;;;;;6.76;83.52;98839.91;4926042;29;20035;-71
2021/05/25 01:16:14;;;;;;;6.75;3.05;;;;;;;6.74;83.45;98856.19;4920876;29;20473;-71
2021/05/25 01:18:40;;;;;;;9.98;2.90;;;;;;;6.73;83.75;98855.38;4932661;29;20040;-71
2021/05/25 01:21:09;;;;;;;8.88;3.35;;;;;;;6.71;83.82;98852.16;4922783;29;20028;-71
2021/05/25 01:23:36;;;;;;;8.35;3.00;;;;;;;6.79;83.60;98844.78;4921396;29;20118;-72
2021/05/25 01:26:03;;;;;;;9.93;2.97;;;;;;;6.83;83.18;98849.41;4929326;29;20044;-71
2021/05/25 01:28:29;;;;;;;9.85;3.03;;;;;;;6.91;82.86;98848.22;4928805;29;20091;-71
2021/05/25 01:30:56;;;;;;;12.65;2.65;;;;;;;6.99;82.28;98853.19;4932218;29;20035;-71
2021/05/25 01:33:24;;;;;;;6.90;2.85;;;;;;;6.96;83.39;98844.81;4931521;29;20035;-71
2021/05/25 01:35:49;;;;;;;8.55;2.83;;;;;;;6.96;83.20;98858.19;4920701;29;20069;-71
2021/05/25 01:38:16;;;;;;;12.07;2.72;;;;;;;7.05;82.26;98854.06;4933982;29;20063;-71
2021/05/25 01:40:43;;;;;;;10.98;3.65;;;;;;;7.00;83.08;98849.44;4925721;29;20050;-71
2021/05/25 01:43:09;;;;;;;9.27;2.92;;;;;;;6.99;82.98;98850.50;4926591;29;20032;-71
2021/05/25 01:45:36;;;;;;;9.00;2.42;;;;;;;7.03;82.59;98861.53;4927203;29;20059;-71
2021/05/25 01:48:04;;;;;;;5.85;2.53;;;;;;;7.02;82.91;98858.06;4925198;29;20077;-71
2021/05/25 01:50:31;;;;;;;6.60;1.98;;;;;;;7.08;82.62;98860.81;4907382;29;20409;-71
2021/05/25 01:53:04;;;;;;;7.85;2.03;;;;;;;7.11;81.70;98850.44;4915786;29;20039;-71
2021/05/25 01:55:41;;;;;;;10.80;1.88;;;;;;;7.08;82.32;98850.94;4921981;29;20497;-71
2021/05/25 01:58:20;;;;;;;8.52;2.15;;;;;;;7.07;82.50;98849.31;4920856;29;20058;-71
2021/05/25 02:00:51;;;;;;;10.88;2.10;;;;;;;7.00;83.39;98862.84;4927393;29;20492;-71
2021/05/25 02:03:18;;;;;;;10.38;2.10;;;;;;;6.95;83.45;98864.59;4922764;29;20030;-72
2021/05/25 02:05:46;;;;;;;9.95;1.98;;;;;;;6.94;83.84;98862.97;4927404;29;20166;-71
2021/05/25 02:08:12;;;;;;;4.15;1.50;;;;;;;6.94;83.55;98869.16;4928805;29;20039;-71
2021/05/25 02:10:47;;;;;;;7.63;1.60;;;;;;;6.94;83.22;98865.66;4934523;29;20118;-71
2021/05/25 02:13:24;;;;;;;5.70;1.48;;;;;;;6.96;83.00;98869.72;4935068;29;20046;-71
2021/05/25 02:16:02;;;;;;;3.83;1.50;;;;;;;7.01;82.68;98864.47;4929546;29;20028;-71
2021/05/25 02:18:33;;;;;;;9.63;1.60;;;;;;;7.01;82.87;98869.00;4921213;29;20085;-71
2021/05/25 02:21:01;;;;;;;5.88;1.10;;;;;;;7.00;82.82;98867.38;4933426;29;20113;-71
2021/05/25 02:23:27;;;;;;;4.88;1.33;;;;;;;6.95;83.19;98868.09;4927338;29;20123;-71
2021/05/25 02:25:54;;;;;;;8.02;1.33;;;;;;;7.03;82.24;98875.75;4929361;29;20056;-71
2021/05/25 02:28:20;;;;;;;11.98;1.45;;;;;;;7.10;81.18;98869.41;4927284;29;20044;-71
2021/05/25 02:30:46;;;;;;;10.00;1.50;;;;;;;7.09;81.67;98860.59;4932957;29;20132;-71
2021/05/25 02:33:18;;;;;;;8.95;1.48;;;;;;;7.08;81.74;98867.00;4928603;29;20042;-71
2021/05/25 02:35:45;;;;;;;10.98;1.33;;;;;;;7.17;80.83;98875.44;4931467;29;20031;-71
2021/05/25 02:38:13;;;;;;;11.65;1.20;;;;;;;7.27;80.80;98872.13;4927595;28;20035;-71
2021/05/25 02:40:39;;;;;;;11.27;1.80;;;;;;;7.27;80.69;98867.56;4926559;29;20059;-71
2021/05/25 02:43:05;;;;;;;7.38;1.20;;;;;;;7.26;80.88;98868.63;4928544;29;20039;-70
2021/05/25 02:45:32;;;;;;;5.88;1.25;;;;;;;7.32;80.62;98874.91;4926614;29;20087;-71
2021/05/25 02:47:58;;;;;;;6.18;0.93;;;;;;;7.31;80.99;98870.59;4927347;29;20579;-70
2021/05/25 02:50:24;;;;;;;7.65;1.42;;;;;;;7.26;81.63;98870.50;4926089;29;20055;-70
2021/05/25 02:52:52;;;;;;;8.38;1.55;;;;;;;7.26;81.19;98868.63;4947938;29;20070;-70
2021/05/25 02:55:20;;;;;;;4.85;1.33;;;;;;;7.28;81.38;98869.19;4929946;28;20039;-71
2021/05/25 02:57:46;;;;;;;9.35;1.40;;;;;;;7.35;81.06;98876.25;4922602;29;20179;-70
2021/05/25 03:00:15;;;;;;;9.60;1.42;;;;;;;7.36;81.09;98865.31;4934226;29;20044;-70
2021/05/25 03:02:41;;;;;;;12.68;2.03;;;;;;;7.33;81.58;98868.50;4934545;29;20117;-70
2021/05/25 03:05:09;;;;;;;10.27;1.70;;;;;;;7.32;81.76;98878.38;4941050;28;20040;-69
2021/05/25 03:07:36;;;;;;;9.93;1.50;;;;;;;7.27;81.65;98878.28;4931706;29;20039;-69
2021/05/25 03:10:04;;;;;;;11.32;1.70;;;;;;;7.27;83.28;98874.81;4927227;29;20135;-70
2021/05/25 03:12:29;;;;;;;6.65;1.50;;;;;;;7.28;83.05;98876.44;4919587;29;20499;-70
2021/05/25 03:14:55;;;;;;;13.05;1.67;;;;;;;7.17;84.06;98878.13;4934351;29;20039;-71
2021/05/25 03:17:22;;;;;;;10.32;1.10;;;;;;;7.15;83.53;98880.22;4929196;29;20103;-71
2021/05/25 03:19:49;;;;;;;4.05;1.13;;;;;;;7.09;84.29;98875.81;4929646;29;20043;-71
2021/05/25 03:22:15;;;;;;;4.63;1.20;;;;;;;7.04;84.11;98879.22;4940085;28;20095;-71
2021/05/25 03:24:40;;;;;;;6.95;0.95;;;;;;;6.99;85.12;98889.81;4934971;29;20032;-71
2021/05/25 03:27:06;;;;;;;5.88;1.10;;;;;;;6.88;86.21;98880.81;4928890;29;20448;-71
2021/05/25 03:29:31;;;;;;;3.70;0.90;;;;;;;6.88;86.47;98886.16;4928548;29;20040;-71
2021/05/25 03:31:57;;;;;;;9.02;0.93;;;;;;;6.85;85.88;98884.78;4932805;29;20090;-72
2021/05/25 03:34:23;;;;;;;4.68;0.98;;;;;;;6.88;85.42;98886.16;4936255;29;20040;-71
2021/05/25 03:36:49;;;;;;;3.78;0.85;;;;;;;6.81;84.99;98888.97;4931298;29;20046;-73
2021/05/25 03:39:14;;;;;;;8.07;1.40;;;;;;;6.79;85.17;98888.41;4922003;29;20044;-71
2021/05/25 03:41:40;;;;;;;5.85;1.10;;;;;;;6.79;85.25;98892.97;4938628;28;20028;-71
2021/05/25 03:44:12;;;;;;;5.07;1.10;;;;;;;6.76;85.22;98891.56;4936194;29;20517;-71
2021/05/25 03:46:38;;;;;;;8.13;1.50;;;;;;;6.86;84.25;98888.28;4923416;29;20127;-71
2021/05/25 03:49:04;;;;;;;12.93;1.70;;;;;;;6.87;84.92;98901.41;4935674;29;20135;-71
2021/05/25 03:51:30;;;;;;;11.05;1.33;;;;;;;6.86;84.63;98894.44;4924826;29;20031;-71
2021/05/25 03:53:56;;;;;;;6.80;1.05;;;;;;;6.91;85.08;98892.91;4920969;29;20039;-71
2021/05/25 03:56:29;;;;;;;8.93;1.40;;;;;;;6.89;85.20;98903.84;4924407;29;20892;-70
2021/05/25 03:58:55;;;;;;;8.13;1.60;;;;;;;6.91;85.27;98904.44;4927019;29;20075;-70
2021/05/25 04:01:23;;;;;;;9.20;1.40;;;;;;;6.91;85.33;98901.75;4924264;29;20123;-71
2021/05/25 04:03:50;;;;;;;11.20;1.48;;;;;;;6.96;85.38;98899.16;4918829;29;20032;-71
2021/05/25 04:06:17;;;;;;;7.05;1.20;;;;;;;6.95;84.73;98899.41;4927317;29;20107;-71
2021/05/25 04:08:42;;;;;;;10.82;1.80;;;;;;;7.03;84.94;98901.69;4929074;29;20050;-71
2021/05/25 04:11:08;;;;;;;7.78;1.70;;;;;;;6.99;85.76;98898.69;4926266;29;20617;-70
2021/05/25 04:13:33;;;;;;;9.63;1.35;;;;;;;7.01;85.15;98891.22;4930247;29;20151;-71
2021/05/25 04:15:59;;;;;;;20.95;1.70;;;;;;;7.05;85.37;98904.13;4929137;29;20036;-71
2021/05/25 04:18:24;;;;;;;8.65;1.23;;;;;;;7.10;84.97;98898.88;4935259;29;20067;-71
2021/05/25 04:20:50;;;;;;;10.35;2.10;;;;;;;7.05;85.56;98902.25;4929025;29;20381;-71
2021/05/25 04:23:16;;;;;;;7.78;1.70;;;;;;;7.03;85.44;98901.69;4929852;29;20066;-72
2021/05/25 04:25:42;;;;;;;6.05;1.40;;;;;;;7.05;84.80;98896.91;4935690;29;20032;-71
2021/05/25 04:28:08;;;;;;;9.25;1.65;;;;;;;7.05;84.62;98909.50;4927874;29;20032;-71
2021/05/25 04:30:34;;;;;;;8.35;1.40;;;;;;;7.09;84.67;98906.13;4935983;29;20035;-72
2021/05/25 04:33:00;;;;;;;11.18;1.77;;;;;;;7.14;83.91;98902.69;4930638;29;20569;-72
2021/05/25 04:35:26;;;;;;;15.40;1.98;;;;;;;7.15;83.45;98905.16;4935196;29;20075;-71
2021/05/25 04:37:52;;;;;;;7.60;1.58;;;;;;;7.25;82.59;98911.75;4926255;29;20028;-71
2021/05/25 04:40:18;;;;;;;12.55;1.75;;;;;;;7.26;82.64;98906.13;4930465;29;20035;-71
2021/05/25 04:42:45;;;;;;;15.40;1.95;;;;;;;7.26;83.10;98919.53;4933866;29;20042;-71
2021/05/25 04:45:11;;;;;;;9.13;1.40;;;;;;;7.23;83.69;98921.88;4932418;29;20027;-71
2021/05/25 04:47:37;;;;;;;11.48;1.52;;;;;;;7.21;83.09;98932.03;4928029;29;20036;-71
2021/05/25 04:50:05;;;;;;;13.05;2.17;;;;;;;7.19;84.66;98945.63;4923881;29;20123;-72
2021/05/25 04:52:33;;;;;;;10.15;1.80;;;;;;;7.11;84.90;98944.16;4924982;29;20036;-72
2021/05/25 04:54:59;;;;;;;5.97;1.25;;;;;;;7.10;84.90;98942.53;4925105;29;20111;-72
2021/05/25 04:57:25;;;;;;;10.20;1.40;;;;;;;7.09;84.96;98946.28;4918251;29;20118;-70
2021/05/25 04:59:50;;;;;;;16.63;1.63;;;;;;;7.02;86.13;98961.63;4929186;29;20036;-71
2021/05/25 05:02:16;;;;;;;7.68;1.55;;;;;;;7.06;85.76;98954.75;4935194;29;20110;-71
2021/05/25 05:04:43;;;;;;;3.80;0.85;;;;;;;7.12;85.06;98961.88;4927869;29;20098;-71
2021/05/25 05:07:09;;;;;;;5.55;1.30;;;;;;;7.18;84.41;98955.56;4925343;29;20056;-71
2021/05/25 05:09:34;;;;;;;8.75;1.60;;;;;;;7.15;85.35;98961.38;4928225;29;20104;-71
2021/05/25 05:12:00;;;;;;;5.28;1.10;;;;;;;7.15;85.48;98969.41;4931717;29;20632;-71
2021/05/25 05:14:25;;;;;;;6.65;1.65;;;;;;;7.18;84.54;98965.44;4930142;29;20126;-72
2021/05/25 05:16:51;;;;;;;9.23;1.02;;;;;;;7.27;84.68;98980.06;4928122;29;20036;-73
2021/05/25 05:19:17;;;;;;;11.13;1.27;;;;;;;7.21;84.46;98975.66;4931737;29;20058;-70
2021/05/25 05:21:43;;;;;;;5.65;1.33;;;;;;;7.20;85.45;98981.28;4928199;29;20023;-70
2021/05/25 05:24:09;;;;;;;11.50;1.45;;;;;;;7.25;84.88;98976.03;4931823;29;20385;-72
2021/05/25 05:26:34;;;;;;;4.72;1.20;;;;;;;7.27;85.33;98973.91;4929569;29;20478;-72
2021/05/25 05:29:00;;;;;;;5.18;1.33;;;;;;;7.29;85.53;98977.97;4920221;29;20040;-73
2021/05/25 05:31:26;;;;;;;11.35;1.40;;;;;;;7.33;85.44;98979.09;4930718;29;20036;-72
2021/05/25 05:33:51;;;;;;;7.20;1.20;;;;;;;7.38;84.22;98985.63;4923819;29;20497;-73
2021/05/25 05:36:17;;;;;;;8.05;1.63;;;;;;;7.37;84.68;98987.50;4918163;29;20035;-73
2021/05/25 05:38:45;;;;;;;8.95;1.38;;;;;;;7.38;84.12;98977.56;4922635;29;20112;-73
2021/05/25 05:41:12;;;;;;;10.40;1.70;;;;;;;7.43;83.11;98986.53;4922051;29;20028;-73
2021/05/25 05:43:37;;;;;;;6.95;1.42;;;;;;;7.44;83.57;98987.34;4923202;29;20047;-73
2021/05/25 05:46:03;;;;;;;8.15;1.20;;;;;;;7.40;83.45;98986.19;4921658;29;20482;-74
2021/05/25 05:48:30;;;;;;;8.65;1.45;;;;;;;7.40;83.57;98988.88;4922764;29;20058;-73
2021/05/25 05:50:56;;;;;;;7.40;1.23;;;;;;;7.45;83.22;98992.47;4925500;29;20032;-75
2021/05/25 05:53:21;;;;;;;9.57;1.63;;;;;;;7.43;83.82;98996.44;4919657;29;20052;-74
2021/05/25 05:55:47;;;;;;;10.57;1.80;;;;;;;7.45;84.08;99003.19;4917826;29;20509;-73
2021/05/25 05:58:14;;;;;;;8.13;1.30;;;;;;;7.42;84.07;99011.69;4921439;29;20048;-73
2021/05/25 06:00:41;;;;;;;7.43;1.50;;;;;;;7.42;84.54;99006.34;4919837;29;20036;-73
2021/05/25 06:03:11;;;;;;;8.38;1.30;;;;;;;7.58;83.96;99001.25;4925656;29;20035;-74
2021/05/25 06:05:38;;;;;;;10.75;1.70;;;;;;;7.59;83.58;99013.59;4936350;29;20035;-74
2021/05/25 06:08:05;;;;;;;11.68;1.48;;;;;;;7.53;84.86;99009.22;4932303;28;20123;-73
2021/05/25 06:10:31;;;;;;;7.97;1.33;;;;;;;7.57;84.79;99011.16;4929513;29;20048;-73
2021/05/25 06:12:57;;;;;;;7.78;1.10;;;;;;;7.61;84.92;99011.50;4925841;29;20038;-72
2021/05/25 06:15:24;;;;;;;7.47;1.60;;;;;;;7.71;85.22;99016.22;4929984;29;20082;-82
2021/05/25 06:17:50;;;;;;;10.50;1.88;;;;;;;7.83;84.54;99018.84;4930809;29;20067;-78
2021/05/25 06:20:16;;;;;;;10.93;2.03;;;;;;;8.02;83.59;99022.91;4928851;29;20059;-77
2021/05/25 06:22:42;;;;;;;9.73;1.55;;;;;;;8.01;83.06;99020.47;4931991;29;20032;-81
2021/05/25 06:25:08;;;;;;;10.85;1.92;;;;;;;7.96;83.37;99012.34;4918784;29;20040;-81
2021/05/25 06:27:36;;;;;;;8.43;1.95;;;;;;;8.01;82.93;99020.47;4922316;29;20031;-82
2021/05/25 06:30:03;;;;;;;11.25;1.77;;;;;;;8.19;83.02;99022.09;4921578;29;20035;-81
2021/05/25 06:32:28;;;;;;;8.43;1.58;;;;;;;8.36;83.48;99019.41;4927334;29;20126;-82
2021/05/25 06:34:54;;;;;;;6.05;1.48;;;;;;;8.49;83.09;99029.00;4938508;29;20189;-82
2021/05/25 06:37:20;;;;;;;8.57;1.60;;;;;;;8.37;83.91;99034.44;4922636;29;20481;-81
2021/05/25 06:39:46;;;;;;;9.70;1.73;;;;;;;8.14;84.80;99036.25;4913497;29;20409;-79
2021/05/25 06:42:11;;;;;;;6.13;1.70;;;;;;;7.94;86.08;99042.09;4920251;29;20031;-75
2021/05/25 06:44:38;;;;;;;5.57;2.13;;;;;;;7.77;86.25;99044.72;4939734;29;20028;-81
2021/05/25 06:47:04;;;;;;;9.18;2.40;;;;;;;7.71;85.69;99038.47;4929418;29;20434;-82
2021/05/25 06:49:29;;;;;;;11.63;2.50;;;;;;;7.67;85.66;99058.78;4929216;29;20039;-85
2021/05/25 06:51:55;;;;;;;14.02;2.60;;;;;;;7.68;86.80;99054.22;4929477;29;20564;-84
2021/05/25 06:54:21;;;;;;;8.07;2.70;;;;;;;7.69;86.78;99047.81;4925434;29;20032;-84
2021/05/25 06:56:47;;;;;;;10.90;2.22;;;;;;;7.71;86.47;99053.72;4924377;29;20036;-84
2021/05/25 06:59:13;;;;;;;11.50;2.08;;;;;;;7.80;85.57;99051.50;4920919;29;20067;-82
2021/05/25 07:01:38;;;;;;;14.85;2.90;;;;;;;7.82;85.00;99058.22;4929689;29;20059;-76
2021/05/25 07:04:04;;;;;;;13.73;2.65;;;;;;;7.84;83.72;99053.44;4914631;29;20039;-76
2021/05/25 07:06:29;;;;;;;13.05;2.80;;;;;;;7.81;84.00;99059.28;4923656;29;20157;-75
2021/05/25 07:08:56;;;;;;;14.68;2.92;;;;;;;7.76;83.19;99059.19;4921258;29;20051;-74
2021/05/25 07:11:22;;;;;;;19.77;3.15;;;;;;;7.71;83.06;99064.44;4922678;29;20115;-75
2021/05/25 07:13:48;;;;;;;14.23;3.38;;;;;;;7.75;82.88;99073.63;4918594;29;20063;-75
2021/05/25 07:16:13;;;;;;;14.90;3.40;;;;;;;7.78;83.62;99067.00;4922782;29;20044;-75
2021/05/25 07:18:40;;;;;;;18.10;4.60;;;;;;;7.72;83.23;99074.94;4934319;29;20502;-75
2021/05/25 07:21:06;;;;;;;17.38;2.55;;;;;;;7.79;83.35;99084.72;4927727;29;20059;-74
2021/05/25 07:23:32;;;;;;;15.85;3.03;;;;;;;7.73;84.25;99083.78;4931351;29;20482;-75
2021/05/25 07:25:58;;;;;;;18.58;2.92;;;;;;;7.83;82.16;99086.66;4923785;29;20118;-75
2021/05/25 07:28:24;;;;;;;13.75;2.65;;;;;;;7.85;82.42;99095.28;4929605;29;20055;-75
2021/05/25 07:30:49;;;;;;;15.38;3.00;;;;;;;7.84;82.91;99098.22;4928908;29;20046;-75
2021/05/25 07:33:15;;;;;;;15.48;3.08;;;;;;;7.92;82.44;99100.50;4924830;29;20529;-75
2021/05/25 07:35:41;;;;;;;22.20;2.97;;;;;;;7.99;81.38;99100.38;4941964;28;20040;-75
2021/05/25 07:38:07;;;;;;;17.42;3.30;;;;;;;7.96;82.28;99104.34;4932057;29;20068;-75
2021/05/25 07:40:32;;;;;;;19.45;3.58;;;;;;;8.04;80.70;99108.50;4941494;29;20074;-75
2021/05/25 07:42:58;;;;;;;14.07;2.90;;;;;;;8.08;80.76;99106.13;4934199;28;20040;-74
2021/05/25 07:45:24;;;;;;;18.52;2.65;;;;;;;8.10;80.66;99104.84;4942093;29;20068;-75
2021/05/25 07:47:49;;;;;;;15.25;2.63;;;;;;;8.09;81.52;99105.91;4931566;29;20028;-77
2021/05/25 07:50:16;;;;;;;12.25;2.25;;;;;;;8.14;80.50;99119.41;4945699;29;20540;-75
2021/05/25 07:52:47;;;;;;;17.27;2.30;;;;;;;8.13;80.61;99120.47;4946525;28;20079;-75
2021/05/25 07:55:13;;;;;;;11.88;2.53;;;;;;;8.19;79.93;99103.41;4924887;29;20040;-75
2021/05/25 07:57:40;;;;;;;10.88;2.10;;;;;;;8.23;80.77;99111.75;4913863;29;20126;-74
2021/05/25 08:00:11;;;;;;;14.73;2.33;;;;;;;8.26;79.88;99116.63;4913888;29;20108;-74
2021/05/25 08:02:37;;;;;;;10.30;1.88;;;;;;;8.31;79.44;99116.72;4929504;29;20114;-75
2021/05/25 08:05:05;;;;;;;17.58;3.22;;;;;;;8.33;78.59;99119.97;4914781;29;20071;-75
2021/05/25 08:07:31;;;;;;;10.73;1.77;;;;;;;8.35;79.66;99128.59;4915209;29;20036;-75
2021/05/25 08:09:56;;;;;;;19.98;2.10;;;;;;;8.39;78.84;99128.13;4941948;29;20032;-75
2021/05/25 08:12:22;;;;;;;10.60;1.83;;;;;;;8.44;78.63;99126.34;4936990;29;20043;-75
2021/05/25 08:14:48;;;;;;;12.25;1.95;;;;;;;8.50;78.63;99132.63;4931218;29;20565;-75
2021/05/25 08:17:25;;;;;;;14.35;2.08;;;;;;;8.49;78.47;99131.00;4938953;29;20031;-74
2021/05/25 08:19:51;;;;;;;15.20;2.17;;;;;;;8.53;77.92;99134.81;4932015;28;20044;-74
2021/05/25 08:22:17;;;;;;;11.70;1.95;;;;;;;8.55;78.53;99137.28;4914186;29;20526;-74
2021/05/25 08:24:43;;;;;;;16.75;1.67;;;;;;;8.55;78.72;99143.44;4920164;29;20110;-75
2021/05/25 08:27:09;;;;;;;11.48;1.95;;;;;;;8.58;77.69;99148.31;4936410;29;20044;-74
2021/05/25 08:29:35;;;;;;;13.40;1.90;;;;;;;8.46;77.70;99156.44;4927683;29;20042;-75
2021/05/25 08:32:00;;;;;;;8.80;1.98;;;;;;;8.42;79.04;99155.28;4591447;28;10000253;-74
2021/05/25 08:34:26;;;;;;;7.45;1.63;;;;;;;8.37;78.79;99168.63;4927912;29;20499;-75
2021/05/25 08:36:53;;;;;;;12.40;2.50;;;;;;;8.34;79.11;99175.28;4938455;29;20051;-75
2021/05/25 08:39:19;;;;;;;10.93;2.20;;;;;;;8.32;79.59;99172.00;4940355;28;20044;-75
2021/05/25 08:41:45;;;;;;;9.73;2.00;;;;;;;8.29;80.64;99169.81;4945458;29;20481;-75
2021/05/25 08:44:11;;;;;;;10.18;2.20;;;;;;;8.31;79.58;99177.63;4943420;28;20067;-75
2021/05/25 08:46:37;;;;;;;13.93;2.38;;;;;;;8.30;80.33;99181.38;4930885;28;20047;-75
2021/05/25 08:49:10;;;;;;;8.43;2.08;;;;;;;8.29;79.75;99187.78;4929059;29;20043;-74
2021/05/25 08:51:36;;;;;;;10.00;1.93;;;;;;;8.30;81.45;99186.75;4928013;29;20091;-75
2021/05/25 08:54:03;;;;;;;17.00;3.28;;;;;;;8.26;80.30;99188.28;4918645;29;20459;-74
2021/05/25 08:56:29;;;;;;;9.70;1.85;;;;;;;8.20;80.29;99187.34;4925900;29;20067;-74
2021/05/25 08:58:54;;;;;;;12.77;2.03;;;;;;;8.14;81.71;99191.84;4922955;29;20075;-74
2021/05/25 09:01:20;;;;;;;15.70;2.38;;;;;;;8.09;82.83;99198.94;4932286;29;20749;-75
2021/05/25 09:04:04;;;;;;;17.02;2.42;;;;;;;7.93;82.54;99197.84;4920395;29;20039;-74
2021/05/25 09:06:47;;;;;;;17.80;2.53;;;;;;;7.87;83.48;99200.41;4933383;29;20042;-76
2021/05/25 09:09:15;;;;;;;9.02;2.17;;;;;;;7.90;83.16;99197.25;4925813;29;20035;-76
2021/05/25 09:12:03;;;;;;;21.80;3.83;;;;;;;7.93;83.35;99198.66;4924153;29;20040;-75
2021/05/25 09:14:32;;;;;;;12.77;2.40;;;;;;;7.93;83.99;99205.88;4913265;29;20446;-75
2021/05/25 09:17:24;;;;;;;11.65;2.13;;;;;;;7.97;83.32;99204.38;4915408;28;20043;-75
2021/05/25 09:19:54;;;;;;;15.80;2.20;;;;;;;7.91;83.45;99212.28;4913521;29;20044;-75
2021/05/25 09:22:38;;;;;;;21.27;2.90;;;;;;;7.93;82.68;99208.56;4924988;29;20024;-75
2021/05/25 09:25:12;;;;;;;9.77;2.37;;;;;;;7.90;83.40;99207.97;4921436;29;20473;-75
2021/05/25 09:27:45;;;;;;;11.15;2.40;;;;;;;7.97;83.00;99191.75;4925096;29;20159;-75
2021/05/25 09:30:18;;;;;;;17.27;2.70;;;;;;;8.06;82.45;99201.06;4927909;29;20074;-75
2021/05/25 09:32:53;;;;;;;11.30;1.65;;;;;;;8.10;82.30;99196.03;4910876;29;20398;-75
2021/05/25 09:35:21;;;;;;;10.02;2.28;;;;;;;8.20;82.63;99203.44;4922008;29;20020;-75
2021/05/25 09:37:51;;;;;;;13.00;2.45;;;;;;;8.32;80.51;99206.09;4942309;28;20032;-75
2021/05/25 09:40:20;;;;;;;21.88;2.40;;;;;;;8.41;79.12;99196.59;4929122;29;20087;-75
2021/05/25 09:42:47;;;;;;;18.25;2.55;;;;;;;8.53;77.98;99206.50;4929689;29;20039;-75
2021/05/25 09:45:15;;;;;;;18.85;2.90;;;;;;;8.70;78.31;99206.47;4921714;29;20090;-75
2021/05/25 09:47:47;;;;;;;21.58;2.92;;;;;;;8.68;77.64;99209.44;4925032;29;20028;-75
2021/05/25 09:50:16;;;;;;;12.77;2.53;;;;;;;8.69;77.70;99218.28;4923234;29;20039;-75
2021/05/25 09:53:01;;;;;;;14.75;2.85;;;;;;;8.71;78.26;99208.09;4930290;29;20406;-75
2021/05/25 09:55:29;;;;;;;9.63;1.98;;;;;;;8.67;77.59;99209.66;4927469;29;20032;-75
2021/05/25 09:57:57;;;;;;;24.00;3.88;;;;;;;8.71;78.23;99216.16;4927260;29;20052;-77
2021/05/25 10:00:28;;;;;;;18.35;2.95;;;;;;;8.68;78.42;99214.78;4933727;28;20059;-76
2021/05/25 10:03:14;;;;;;;18.20;2.47;;;;;;;8.68;78.28;99213.97;4923845;29;20374;-76
2021/05/25 10:05:49;;;;;;;17.27;2.90;;;;;;;8.53;78.38;99220.69;4920529;29;20032;-75
2021/05/25 10:08:16;;;;;;;16.88;2.88;;;;;;;8.47;78.98;99221.63;4916879;29;20063;-75
2021/05/25 10:10:43;;;;;;;24.83;4.32;;;;;;;8.44;78.54;99208.69;4924491;29;20490;-75
2021/05/25 10:13:10;;;;;;;17.45;3.88;;;;;;;8.53;78.84;99220.69;4933772;29;20644;-75
2021/05/25 10:15:36;;;;;;;14.90;2.65;;;;;;;8.62;79.22;99229.19;4926437;29;20044;-75
2021/05/25 10:20:29;;;;;;;15.93;2.97;;;;;;;8.97;79.16;99214.72;4932834;29;20039;-75
2021/05/25 10:22:55;;;;;;;19.10;3.25;;;;;;;8.82;81.10;99220.66;4930794;29;20040;-75
2021/05/25 10:25:22;;;;;;;27.85;2.88;;;;;;;8.55;80.78;99233.91;4927101;29;20509;-75
2021/05/25 10:27:49;;;;;;;14.55;2.95;;;;;;;8.38;82.06;99233.81;4916942;29;20043;-75
2021/05/25 10:30:34;;;;;;;21.45;2.95;;;;;;;8.20;82.97;99239.16;4938851;29;20635;-75
2021/05/25 10:33:05;;;;;;;17.33;3.20;;;;;;;8.15;82.29;99247.09;4930347;29;20032;-73
2021/05/25 10:35:47;;;;;;;19.05;2.45;;;;;;;8.12;83.76;99244.06;4927674;29;20043;-75
2021/05/25 10:38:12;;;;;;;19.13;3.05;;;;;;;8.12;84.08;99254.81;4930270;29;20024;-74
2021/05/25 10:40:45;;;;;;;14.45;2.97;;;;;;;8.10;83.27;99255.06;4932723;29;20127;-74
2021/05/25 10:43:30;;;;;;;23.17;3.60;;;;;;;8.18;83.28;99243.13;4942820;29;20024;-74
2021/05/25 10:46:11;;;;;;;17.63;2.90;;;;;;;8.20;82.83;99252.56;4935295;29;20051;-75
2021/05/25 10:51:51;;;;;;;21.00;2.88;;;;;;;8.48;80.77;99258.16;4919088;29;20095;-74
2021/05/25 10:54:31;;;;;;;11.30;2.40;;;;;;;8.53;81.02;99258.28;4929710;28;20478;-74
2021/05/25 10:57:02;;;;;;;14.95;2.47;;;;;;;8.59;80.23;99273.41;4917299;29;20031;-74
2021/05/25 10:59:27;;;;;;;11.88;2.03;;;;;;;8.52;80.48;99266.59;4922437;29;20054;-73
2021/05/25 11:01:54;;;;;;;13.50;2.30;;;;;;;8.41;80.01;99269.06;4932937;29;20040;-74
2021/05/25 11:04:25;;;;;;;18.77;3.38;;;;;;;8.43;79.88;99277.69;4935919;29;20035;-74
2021/05/25 11:06:51;;;;;;;16.05;2.40;;;;;;;8.38;79.38;99274.91;4926367;29;20035;-73
2021/05/25 11:09:20;;;;;;;16.40;3.15;;;;;;;8.37;81.88;99269.75;4926519;29;20044;-74
2021/05/25 11:11:46;;;;;;;16.80;3.28;;;;;;;8.33;82.19;99280.97;4931632;29;20055;-75
2021/05/25 11:14:13;;;;;;;17.33;3.13;;;;;;;8.25;80.46;99277.88;4937434;29;20043;-74
2021/05/25 11:16:40;;;;;;;17.80;2.85;;;;;;;8.26;82.02;99284.88;4932771;29;20062;-76
2021/05/25 11:19:45;;;;;;;17.98;3.17;;;;;;;8.33;81.83;99286.34;4933540;29;20110;-74
2021/05/25 11:24:52;;;;;;;16.58;2.80;;;;;;;8.32;82.30;99292.75;4934939;29;20040;-76
2021/05/25 11:27:33;;;;;;;13.23;2.78;;;;;;;8.34;81.37;99296.00;4920814;29;20044;-75
2021/05/25 11:30:01;;;;;;;21.45;3.13;;;;;;;8.34;81.39;99296.00;4919843;29;20497;-75
2021/05/25 11:32:29;;;;;;;28.05;3.35;;;;;;;8.19;83.12;99293.03;4949190;29;20118;-75
2021/05/25 11:35:03;;;;;;;16.17;3.55;;;;;;;8.28;82.37;99301.53;4932483;29;20066;-75
2021/05/25 11:37:33;;;;;;;20.92;3.30;;;;;;;8.26;82.75;99301.75;4936352;29;20127;-77
2021/05/25 11:39:59;;;;;;;21.02;2.70;;;;;;;8.35;82.03;99297.66;4941165;29;20602;-75
2021/05/25 11:42:31;;;;;;;12.85;2.72;;;;;;;8.43;81.97;99301.00;4915991;29;20036;-76
2021/05/25 11:44:57;;;;;;;12.48;2.72;;;;;;;8.63;80.29;99298.72;4928700;29;20027;-75
2021/05/25 11:47:24;;;;;;;22.02;3.35;;;;;;;8.80;78.90;99300.63;4946370;28;20036;-76